createdAt,value
2018-01-14T00:00:24.327Z,17.95
2018-01-14T00:02:54.180Z,16.62
2018-01-14T00:05:23.290Z,18.00
2018-01-14T00:07:51.608Z,17.95
2018-01-14T00:10:20.154Z,19.87
2018-01-14T00:12:49.230Z,22.73
2018-01-14T00:15:17.540Z,16.75
2018-01-14T00:17:45.886Z,20.02
2018-01-14T00:20:14.186Z,21.50
2018-01-14T00:22:43.446Z,18.95
2018-01-14T00:25:12.514Z,17.92
2018-01-14T00:27:40.826Z,15.05
2018-01-14T00:30:10.058Z,23.52
2018-01-14T00:32:39.126Z,15.40
2018-01-14T00:35:07.432Z,15.80
2018-01-14T00:37:35.758Z,20.02
2018-01-14T00:40:04.111Z,18.08
2018-01-14T00:42:32.418Z,14.32
2018-01-14T00:45:01.504Z,15.05
2018-01-14T00:47:29.842Z,17.75
2018-01-14T00:49:58.910Z,18.17
2018-01-14T00:52:27.387Z,15.55
2018-01-14T00:54:55.692Z,22.30
2018-01-14T00:57:23.996Z,17.90
2018-01-14T00:59:53.845Z,20.95
2018-01-14T01:02:22.158Z,18.83
2018-01-14T01:04:50.503Z,14.73
2018-01-14T01:07:19.655Z,17.95
2018-01-14T01:09:47.954Z,17.98
2018-01-14T01:12:16.307Z,16.23
2018-01-14T01:14:45.375Z,18.45
2018-01-14T01:17:13.728Z,18.12
2018-01-14T01:19:42.030Z,25.00
2018-01-14T01:22:10.334Z,19.65
2018-01-14T01:24:38.678Z,21.52
2018-01-14T01:27:07.024Z,18.45
2018-01-14T01:29:35.367Z,16.27
2018-01-14T01:32:03.667Z,18.60
2018-01-14T01:34:32.018Z,19.27
2018-01-14T01:37:01.090Z,20.23
2018-01-14T01:39:29.440Z,19.58
2018-01-14T01:41:58.507Z,18.25
2018-01-14T01:44:28.509Z,20.73
2018-01-14T01:46:56.811Z,16.35
2018-01-14T01:49:25.114Z,15.80
2018-01-14T01:51:53.471Z,17.42
2018-01-14T01:54:21.784Z,18.02
2018-01-14T01:56:50.083Z,17.10
2018-01-14T01:59:18.431Z,18.60
2018-01-14T02:01:46.734Z,17.05
2018-01-14T02:04:15.086Z,20.92
2018-01-14T02:06:44.146Z,18.20
2018-01-14T02:09:12.530Z,18.00
2018-01-14T02:11:40.840Z,19.05
2018-01-14T02:14:09.190Z,16.12
2018-01-14T02:16:37.535Z,15.82
2018-01-14T02:19:06.679Z,22.60
2018-01-14T02:21:35.770Z,22.92
2018-01-14T02:24:04.887Z,14.85
2018-01-14T02:26:33.998Z,14.73
2018-01-14T02:29:03.067Z,17.60
2018-01-14T02:31:32.886Z,17.25
2018-01-14T02:34:02.739Z,15.85
2018-01-14T02:36:31.812Z,14.63
2018-01-14T02:39:00.154Z,19.17
2018-01-14T02:41:28.459Z,17.20
2018-01-14T02:43:56.818Z,17.37
2018-01-14T02:46:25.900Z,22.98
2018-01-14T02:48:54.255Z,17.02
2018-01-14T02:51:22.554Z,16.08
2018-01-14T02:53:51.138Z,23.35
2018-01-14T02:56:19.448Z,17.70
2018-01-14T02:58:47.756Z,17.48
2018-01-14T03:01:17.614Z,16.33
2018-01-14T03:03:46.727Z,22.13
2018-01-14T03:06:15.829Z,19.58
2018-01-14T03:08:44.902Z,17.02
2018-01-14T03:11:13.241Z,16.25
2018-01-14T03:13:41.542Z,16.00
2018-01-14T03:16:09.884Z,26.70
2018-01-14T03:18:38.967Z,16.95
2018-01-14T03:21:07.327Z,21.50
2018-01-14T03:23:35.643Z,23.83
2018-01-14T03:26:04.002Z,21.98
2018-01-14T03:28:32.313Z,22.30
2018-01-14T03:31:00.627Z,18.67
2018-01-14T03:33:28.983Z,19.20
2018-01-14T03:35:57.286Z,19.25
2018-01-14T03:38:25.630Z,23.02
2018-01-14T03:40:54.740Z,21.40
2018-01-14T03:43:23.811Z,19.25
2018-01-14T03:45:52.366Z,19.27
2018-01-14T03:48:20.670Z,19.75
2018-01-14T03:50:48.991Z,17.52
2018-01-14T03:53:17.322Z,26.37
2018-01-14T03:55:45.638Z,16.15
2018-01-14T03:58:13.987Z,23.62
2018-01-14T04:00:43.090Z,18.45
2018-01-14T04:03:12.207Z,17.20
2018-01-14T04:05:41.322Z,24.27
2018-01-14T04:08:10.393Z,21.20
2018-01-14T04:10:40.242Z,27.30
2018-01-14T04:13:09.322Z,22.10
2018-01-14T04:15:37.654Z,21.98
2018-01-14T04:18:05.954Z,20.17
2018-01-14T04:20:34.294Z,20.37
2018-01-14T04:23:04.115Z,25.20
2018-01-14T04:25:32.463Z,23.10
2018-01-14T04:28:00.769Z,23.25
2018-01-14T04:30:29.115Z,24.20
2018-01-14T04:32:58.186Z,20.27
2018-01-14T04:35:26.491Z,21.55
2018-01-14T04:37:56.342Z,20.17
2018-01-14T04:40:25.415Z,19.35
2018-01-14T04:42:53.766Z,19.87
2018-01-14T04:45:22.118Z,27.23
2018-01-14T04:47:51.192Z,18.75
2018-01-14T04:50:19.534Z,24.63
2018-01-14T04:52:48.596Z,23.48
2018-01-14T04:55:16.949Z,28.10
2018-01-14T04:57:45.250Z,28.85
2018-01-14T05:00:13.601Z,20.40
2018-01-14T05:02:42.667Z,23.08
2018-01-14T05:05:10.975Z,19.60
2018-01-14T05:07:40.826Z,19.02
2018-01-14T05:10:09.893Z,25.88
2018-01-14T05:12:38.230Z,32.33
2018-01-14T05:15:07.353Z,24.50
2018-01-14T05:17:35.706Z,25.73
2018-01-14T05:20:04.803Z,24.00
2018-01-14T05:22:33.246Z,24.20
2018-01-14T05:25:02.258Z,21.95
2018-01-14T05:27:30.562Z,27.17
2018-01-14T05:29:58.962Z,27.65
2018-01-14T05:32:27.269Z,25.75
2018-01-14T05:34:55.623Z,25.90
2018-01-14T05:37:23.933Z,25.95
2018-01-14T05:39:52.294Z,27.85
2018-01-14T05:42:20.630Z,25.98
2018-01-14T05:44:50.498Z,22.30
2018-01-14T05:47:19.578Z,19.30
2018-01-14T05:49:48.660Z,27.30
2018-01-14T05:52:16.994Z,22.33
2018-01-14T05:54:46.068Z,21.67
2018-01-14T05:57:14.439Z,34.47
2018-01-14T05:59:42.752Z,28.25
2018-01-14T06:02:11.094Z,22.33
2018-01-14T06:04:39.454Z,31.33
2018-01-14T06:07:08.525Z,21.05
2018-01-14T06:09:36.826Z,19.27
2018-01-14T06:12:06.684Z,30.85
2018-01-14T06:14:35.791Z,24.00
2018-01-14T06:17:04.866Z,27.02
2018-01-14T06:19:33.222Z,26.05
2018-01-14T06:22:01.570Z,19.30
2018-01-14T06:24:31.517Z,26.15
2018-01-14T06:26:59.823Z,25.45
2018-01-14T06:29:28.204Z,26.27
2018-01-14T06:31:56.510Z,28.92
2018-01-14T06:34:25.070Z,23.02
2018-01-14T06:36:54.150Z,29.12
2018-01-14T06:39:22.455Z,29.15
2018-01-14T06:41:51.574Z,31.23
2018-01-14T06:44:20.643Z,26.65
2018-01-14T06:46:48.999Z,17.65
2018-01-14T06:49:17.310Z,27.52
2018-01-14T06:51:45.654Z,26.35
2018-01-14T06:54:14.718Z,22.77
2018-01-14T06:56:43.078Z,26.83
2018-01-14T06:59:11.450Z,27.48
2018-01-14T07:01:39.754Z,25.52
2018-01-14T07:04:08.115Z,19.85
2018-01-14T07:06:37.199Z,23.85
2018-01-14T07:09:05.547Z,24.92
2018-01-14T07:11:33.852Z,28.65
2018-01-14T07:14:02.198Z,29.37
2018-01-14T07:16:31.274Z,20.40
2018-01-14T07:18:59.629Z,30.10
2018-01-14T07:21:27.938Z,30.48
2018-01-14T07:23:56.246Z,24.15
2018-01-14T07:26:24.605Z,24.92
2018-01-14T07:28:52.915Z,24.00
2018-01-14T07:31:21.277Z,23.90
2018-01-14T07:33:49.582Z,18.45
2018-01-14T07:36:17.882Z,23.15
2018-01-14T07:38:46.243Z,28.17
2018-01-14T07:43:44.254Z,18.55
2018-01-14T07:46:12.624Z,24.27
2018-01-14T07:48:41.735Z,25.55
2018-01-14T07:51:10.042Z,22.92
2018-01-14T07:53:38.390Z,24.30
2018-01-14T07:56:07.502Z,25.37
2018-01-14T07:58:36.614Z,25.42
2018-01-14T08:01:05.758Z,22.55
2018-01-14T08:03:34.064Z,23.60
2018-01-14T08:06:02.422Z,22.65
2018-01-14T08:08:30.767Z,21.62
2018-01-14T08:10:59.075Z,19.02
2018-01-14T08:13:28.150Z,16.17
2018-01-14T08:15:56.495Z,19.87
2018-01-14T08:21:01.155Z,23.55
2018-01-14T08:23:30.263Z,19.83
2018-01-14T08:25:59.343Z,18.02
2018-01-14T08:28:27.683Z,22.27
2018-01-14T08:30:56.039Z,21.20
2018-01-14T08:33:25.119Z,18.15
2018-01-14T08:35:53.475Z,22.20
2018-01-14T08:38:21.795Z,22.75
2018-01-14T08:40:50.100Z,22.00
2018-01-14T08:43:18.435Z,17.08
2018-01-14T08:45:46.784Z,23.08
2018-01-14T08:48:15.126Z,18.42
2018-01-14T08:50:43.431Z,19.80
2018-01-14T08:53:11.752Z,19.02
2018-01-14T08:55:40.119Z,16.65
2018-01-14T08:58:08.422Z,18.83
2018-01-14T09:00:36.733Z,23.42
2018-01-14T09:03:05.883Z,15.13
2018-01-14T09:05:34.191Z,26.25
2018-01-14T09:08:02.533Z,18.62
2018-01-14T09:10:31.622Z,25.00
2018-01-14T09:13:01.458Z,15.40
2018-01-14T09:15:30.563Z,20.70
2018-01-14T09:17:59.634Z,21.90
2018-01-14T09:20:27.946Z,18.85
2018-01-14T09:22:58.058Z,19.58
2018-01-14T09:25:26.369Z,23.85
2018-01-14T09:27:54.675Z,19.37
2018-01-14T09:33:22.603Z,18.52
2018-01-14T09:35:51.702Z,18.70
2018-01-14T09:38:21.539Z,18.62
2018-01-14T09:40:50.610Z,16.87
2018-01-14T09:43:18.962Z,19.27
2018-01-14T09:45:47.258Z,18.87
2018-01-14T09:48:15.608Z,16.80
2018-01-14T09:50:44.679Z,15.55
2018-01-14T09:53:12.986Z,17.75
2018-01-14T09:55:41.340Z,13.95
2018-01-14T09:58:09.643Z,18.25
2018-01-14T10:00:38.137Z,14.85
2018-01-14T10:03:06.441Z,16.25
2018-01-14T10:05:34.734Z,19.25
2018-01-14T10:08:03.074Z,14.40
2018-01-14T10:10:31.428Z,18.30
2018-01-14T10:12:59.843Z,16.20
2018-01-14T10:15:28.199Z,17.73
2018-01-14T10:17:56.503Z,14.73
2018-01-14T10:20:24.876Z,15.10
2018-01-14T10:22:53.174Z,15.85
2018-01-14T10:25:22.442Z,14.10
2018-01-14T10:27:50.742Z,16.65
2018-01-14T10:30:19.812Z,21.27
2018-01-14T10:32:48.146Z,17.12
2018-01-14T10:35:16.469Z,18.10
2018-01-14T10:37:44.762Z,15.88
2018-01-14T10:40:13.881Z,17.45
2018-01-14T10:42:42.958Z,19.33
2018-01-14T10:45:11.258Z,17.25
2018-01-14T10:47:39.602Z,15.02
2018-01-14T10:50:07.915Z,15.60
2018-01-14T10:52:36.233Z,17.55
2018-01-14T10:55:04.558Z,20.50
2018-01-14T10:57:32.862Z,18.60
2018-01-14T11:00:01.259Z,18.73
2018-01-14T11:02:29.568Z,14.35
2018-01-14T11:04:57.902Z,17.42
2018-01-14T11:07:26.206Z,22.15
2018-01-14T11:09:54.690Z,19.00
2018-01-14T11:12:23.031Z,21.20
2018-01-14T11:14:51.334Z,19.70
2018-01-14T11:17:19.726Z,19.50
2018-01-14T11:19:48.818Z,15.87
2018-01-14T11:22:17.166Z,16.55
2018-01-14T11:24:46.244Z,17.92
2018-01-14T11:27:15.371Z,19.00
2018-01-14T11:29:44.455Z,17.27
2018-01-14T11:32:13.571Z,15.95
2018-01-14T11:34:42.674Z,22.70
2018-01-14T11:37:11.760Z,20.55
2018-01-14T11:39:40.105Z,16.73
2018-01-14T11:42:08.483Z,14.95
2018-01-14T11:44:36.786Z,17.50
2018-01-14T11:47:05.159Z,15.05
2018-01-14T11:49:34.228Z,17.58
2018-01-14T11:52:02.616Z,14.15
2018-01-14T11:54:31.738Z,18.17
2018-01-14T11:57:00.127Z,20.35
2018-01-14T11:59:28.432Z,16.55
2018-01-14T12:01:56.726Z,19.92
2018-01-14T12:04:25.823Z,8.70
2018-01-14T12:06:54.110Z,30.17
2018-01-14T12:09:22.451Z,14.43
2018-01-14T12:11:50.752Z,13.37
2018-01-14T12:14:19.034Z,15.13
2018-01-14T12:16:47.375Z,10.70
2018-01-14T12:19:15.670Z,14.07
2018-01-14T12:21:44.006Z,15.80
2018-01-14T12:24:12.294Z,18.97
2018-01-14T12:26:40.632Z,18.58
2018-01-14T12:29:08.937Z,12.32
2018-01-14T12:31:38.039Z,18.08
2018-01-14T12:37:14.875Z,13.65
2018-01-14T12:39:43.209Z,11.55
2018-01-14T12:42:11.592Z,19.33
2018-01-14T12:44:39.890Z,21.27
2018-01-14T12:47:08.371Z,16.10
2018-01-14T12:49:36.668Z,17.37
2018-01-14T12:52:04.966Z,15.80
2018-01-14T12:54:33.410Z,16.60
2018-01-14T12:57:01.722Z,16.58
2018-01-14T12:59:30.070Z,15.93
2018-01-14T13:01:59.138Z,19.85
2018-01-14T13:04:27.734Z,17.00
2018-01-14T13:06:56.049Z,16.17
2018-01-14T13:09:24.337Z,12.70
2018-01-14T13:11:52.664Z,11.07
2018-01-14T13:14:21.724Z,14.25
2018-01-14T13:16:50.055Z,15.15
2018-01-14T13:19:19.115Z,14.32
2018-01-14T13:21:47.490Z,14.98
2018-01-14T13:24:15.823Z,17.30
2018-01-14T13:26:44.118Z,15.10
2018-01-14T13:29:13.231Z,17.37
2018-01-14T13:31:42.299Z,18.50
2018-01-14T13:34:10.633Z,13.25
2018-01-14T13:36:39.699Z,14.43
2018-01-14T13:39:08.075Z,14.95
2018-01-14T13:41:36.378Z,20.00
2018-01-14T13:44:04.677Z,14.02
2018-01-14T13:46:33.026Z,17.87
2018-01-14T13:49:01.326Z,19.15
2018-01-14T13:51:29.625Z,15.13
2018-01-14T13:53:57.963Z,23.30
2018-01-14T13:56:27.072Z,21.40
2018-01-14T13:58:56.174Z,22.55
2018-01-14T14:01:25.266Z,19.60
2018-01-14T14:03:55.110Z,21.67
2018-01-14T14:06:24.234Z,22.20
2018-01-14T14:08:53.305Z,14.05
2018-01-14T14:11:21.612Z,20.37
2018-01-14T14:13:51.698Z,20.50
2018-01-14T14:16:20.003Z,21.02
2018-01-14T14:18:48.362Z,20.40
2018-01-14T14:21:16.654Z,18.10
2018-01-14T14:23:45.019Z,17.62
2018-01-14T14:26:14.082Z,16.27
2018-01-14T14:28:42.375Z,17.45
2018-01-14T14:31:10.734Z,17.85
2018-01-14T14:33:39.034Z,24.12
2018-01-14T14:36:07.335Z,18.23
2018-01-14T14:38:35.695Z,20.60
2018-01-14T14:41:03.986Z,20.75
2018-01-14T14:43:32.278Z,21.05
2018-01-14T14:46:00.619Z,18.27
2018-01-14T14:48:30.427Z,20.42
2018-01-14T14:50:58.778Z,14.68
2018-01-14T14:53:27.128Z,21.05
2018-01-14T14:55:55.419Z,16.42
2018-01-14T14:58:25.401Z,16.92
2018-01-14T15:00:53.703Z,20.20
2018-01-14T15:03:22.012Z,20.35
2018-01-14T15:05:50.430Z,25.37
2018-01-14T15:08:19.503Z,21.60
2018-01-14T15:10:47.839Z,18.23
2018-01-14T15:13:16.911Z,14.05
2018-01-14T15:15:46.722Z,18.65
2018-01-14T15:18:15.082Z,19.62
2018-01-14T15:20:43.446Z,18.25
2018-01-14T15:23:12.564Z,18.52
2018-01-14T15:25:41.703Z,17.92
2018-01-14T15:28:10.071Z,18.08
2018-01-14T15:30:38.374Z,16.77
2018-01-14T15:33:06.727Z,17.17
2018-01-14T15:35:35.843Z,20.10
2018-01-14T15:38:04.918Z,20.75
2018-01-14T15:40:33.252Z,16.75
2018-01-14T15:43:02.313Z,17.30
2018-01-14T15:45:30.663Z,18.15
2018-01-14T15:47:59.131Z,21.65
2018-01-14T15:50:28.194Z,21.27
2018-01-14T15:52:56.531Z,17.33
2018-01-14T15:55:25.758Z,16.08
2018-01-14T15:57:54.158Z,21.15
2018-01-14T16:00:22.450Z,18.33
2018-01-14T16:02:50.782Z,20.77
2018-01-14T16:05:19.170Z,22.40
2018-01-14T16:07:48.278Z,19.27
2018-01-14T16:10:16.622Z,16.90
2018-01-14T16:12:44.919Z,20.17
2018-01-14T16:15:13.274Z,20.37
2018-01-14T16:17:42.343Z,21.98
2018-01-14T16:20:10.759Z,17.50
2018-01-14T16:22:39.913Z,18.85
2018-01-14T16:25:08.279Z,22.25
2018-01-14T16:27:37.410Z,19.80
2018-01-14T16:30:05.702Z,17.23
2018-01-14T16:32:34.050Z,22.85
2018-01-14T16:35:03.170Z,21.45
2018-01-14T16:37:32.251Z,21.85
2018-01-14T16:40:00.596Z,18.48
2018-01-14T16:42:28.931Z,17.30
2018-01-14T16:44:57.218Z,19.20
2018-01-14T16:47:25.565Z,17.98
2018-01-14T16:49:53.934Z,17.65
2018-01-14T16:52:23.002Z,20.95
2018-01-14T16:54:51.331Z,22.42
2018-01-14T16:57:20.397Z,23.33
2018-01-14T16:59:48.738Z,17.73
2018-01-14T17:02:17.039Z,21.75
2018-01-14T17:04:45.595Z,19.62
2018-01-14T17:07:13.886Z,17.70
2018-01-14T17:09:42.959Z,23.05
2018-01-14T17:12:11.334Z,17.37
2018-01-14T17:14:39.634Z,20.05
2018-01-14T17:17:07.987Z,20.08
2018-01-14T17:19:36.283Z,17.33
2018-01-14T17:22:04.648Z,21.52
2018-01-14T17:24:33.724Z,17.62
2018-01-14T17:27:02.086Z,18.42
2018-01-14T17:29:30.439Z,19.92
2018-01-14T17:31:59.507Z,18.12
2018-01-14T17:34:27.881Z,21.83
2018-01-14T17:36:56.231Z,21.27
2018-01-14T17:39:25.326Z,18.85
2018-01-14T17:41:53.699Z,18.48
2018-01-14T17:44:22.058Z,19.27
2018-01-14T17:46:50.363Z,17.12
2018-01-14T17:49:18.777Z,21.55
2018-01-14T17:51:47.065Z,18.30
2018-01-14T17:54:15.366Z,19.60
2018-01-14T17:56:43.746Z,17.90
2018-01-14T17:59:12.090Z,19.73
2018-01-14T18:01:40.434Z,19.40
2018-01-14T18:04:08.747Z,16.60
2018-01-14T18:06:37.183Z,20.30
2018-01-14T18:09:05.510Z,23.00
2018-01-14T18:11:34.586Z,25.52
2018-01-14T18:14:02.956Z,16.90
2018-01-14T18:16:31.263Z,16.50
2018-01-14T18:18:59.576Z,26.70
2018-01-14T18:21:27.922Z,22.15
2018-01-14T18:23:56.379Z,18.87
2018-01-14T18:26:25.486Z,20.65
2018-01-14T18:28:54.554Z,21.80
2018-01-14T18:31:22.940Z,22.80
2018-01-14T18:33:51.278Z,23.33
2018-01-14T18:36:20.401Z,19.42
2018-01-14T18:38:48.889Z,25.60
2018-01-14T18:41:18.045Z,23.67
2018-01-14T18:43:46.394Z,27.98
2018-01-14T18:46:14.745Z,23.58
2018-01-14T18:48:43.086Z,21.52
2018-01-14T18:51:11.582Z,25.85
2018-01-14T18:53:39.920Z,25.27
2018-01-14T18:56:08.221Z,20.10
2018-01-14T18:58:37.599Z,30.15
2018-01-14T19:01:05.955Z,17.95
2018-01-14T19:03:34.306Z,18.08
2018-01-14T19:06:02.883Z,21.35
2018-01-14T19:08:31.234Z,26.00
2018-01-14T19:10:59.587Z,23.62
2018-01-14T19:13:27.950Z,23.35
2018-01-14T19:15:56.248Z,21.87
2018-01-14T19:18:24.594Z,23.20
2018-01-14T19:20:52.959Z,24.85
2018-01-14T19:23:22.070Z,23.67
2018-01-14T19:25:51.196Z,21.67
2018-01-14T19:28:19.561Z,21.37
2018-01-14T19:30:48.184Z,24.12
2018-01-14T19:33:16.494Z,21.55
2018-01-14T19:35:44.812Z,22.35
2018-01-14T19:40:53.651Z,27.67
2018-01-14T19:43:22.137Z,18.33
2018-01-14T19:45:50.460Z,25.52
2018-01-14T19:48:18.753Z,25.80
2018-01-14T19:50:47.082Z,21.10
2018-01-14T19:53:16.152Z,26.58
2018-01-14T19:55:44.526Z,20.20
2018-01-14T19:58:12.867Z,24.05
2018-01-14T20:00:41.972Z,18.98
2018-01-14T20:03:11.126Z,23.30
2018-01-14T20:05:39.448Z,23.67
2018-01-14T20:10:43.307Z,24.50
2018-01-14T20:13:13.278Z,31.33
2018-01-14T20:15:42.354Z,24.17
2018-01-14T20:18:11.648Z,27.45
2018-01-14T20:20:39.995Z,25.02
2018-01-14T20:23:08.307Z,24.80
2018-01-14T20:25:36.611Z,34.67
2018-01-14T20:28:04.938Z,27.50
2018-01-14T20:30:34.043Z,28.48
2018-01-14T20:33:03.155Z,27.13
2018-01-14T20:37:57.524Z,26.20
2018-01-14T20:40:25.862Z,25.60
2018-01-14T20:42:55.363Z,24.77
2018-01-14T20:45:25.213Z,27.48
2018-01-14T20:47:54.316Z,26.55
2018-01-14T20:50:23.451Z,21.62
2018-01-14T20:52:51.810Z,25.85
2018-01-14T20:55:20.975Z,30.20
2018-01-14T20:57:49.306Z,28.27
2018-01-14T21:00:18.425Z,32.55
2018-01-14T21:02:47.589Z,30.50
2018-01-14T21:05:15.926Z,29.80
2018-01-14T21:07:45.062Z,28.58
2018-01-14T21:10:13.450Z,32.33
2018-01-14T21:12:41.906Z,24.70
2018-01-14T21:15:11.020Z,27.17
2018-01-14T21:17:40.130Z,35.53
2018-01-14T21:20:09.282Z,27.77
2018-01-14T21:22:37.618Z,22.58
2018-01-14T21:25:06.259Z,29.10
2018-01-14T21:27:34.571Z,26.92
2018-01-14T21:30:02.882Z,28.10
2018-01-14T21:32:31.278Z,28.00
2018-01-14T21:34:59.627Z,30.08
2018-01-14T21:37:28.020Z,28.52
2018-01-14T21:39:56.360Z,27.83
2018-01-14T21:42:25.481Z,25.35
2018-01-14T21:44:54.609Z,22.67
2018-01-14T21:47:23.998Z,23.65
2018-01-14T21:49:53.076Z,26.00
2018-01-14T21:52:21.395Z,25.92
2018-01-14T21:54:50.503Z,30.05
2018-01-14T21:57:19.614Z,30.90
2018-01-14T21:59:48.707Z,28.73
2018-01-14T22:02:17.066Z,28.62
2018-01-14T22:04:45.380Z,30.65
2018-01-14T22:07:13.795Z,33.45
2018-01-14T22:09:42.907Z,28.70
2018-01-14T22:12:12.750Z,25.48
2018-01-14T22:14:41.855Z,30.08
2018-01-14T22:17:10.306Z,25.67
2018-01-14T22:19:40.148Z,29.23
2018-01-14T22:22:09.268Z,31.05
2018-01-14T22:24:38.386Z,31.58
2018-01-14T22:27:07.475Z,26.40
2018-01-14T22:29:36.631Z,27.37
2018-01-14T22:32:05.028Z,30.10
2018-01-14T22:34:33.370Z,23.27
2018-01-14T22:37:01.700Z,29.85
2018-01-14T22:39:30.043Z,29.12
2018-01-14T22:41:59.171Z,27.42
2018-01-14T22:44:28.244Z,27.67
2018-01-14T22:46:56.588Z,33.58
2018-01-14T22:49:24.926Z,38.30
2018-01-14T22:51:54.740Z,28.85
2018-01-14T22:54:23.062Z,32.97
2018-01-14T22:56:52.208Z,33.00
2018-01-14T22:59:20.619Z,36.13
2018-01-14T23:01:50.514Z,23.98
2018-01-14T23:04:18.855Z,26.98
2018-01-14T23:06:47.182Z,29.98
2018-01-14T23:09:16.254Z,29.40
2018-01-14T23:11:44.566Z,27.42
2018-01-14T23:14:13.691Z,32.55
2018-01-14T23:16:42.769Z,27.37
2018-01-14T23:19:11.146Z,32.03
2018-01-14T23:21:39.442Z,30.20
2018-01-14T23:24:07.812Z,31.10
2018-01-14T23:26:36.963Z,26.50
2018-01-14T23:29:06.064Z,30.92
2018-01-14T23:31:35.144Z,29.87
2018-01-14T23:34:03.527Z,34.00
2018-01-14T23:36:31.886Z,39.50
2018-01-14T23:39:00.267Z,28.98
2018-01-14T23:41:29.387Z,33.65
2018-01-14T23:43:57.742Z,30.92
2018-01-14T23:46:26.859Z,29.08
2018-01-14T23:48:55.942Z,35.90
2018-01-14T23:51:24.318Z,27.30
2018-01-14T23:53:52.638Z,35.10
2018-01-14T23:56:21.783Z,32.83
2018-01-14T23:58:50.127Z,32.95
